Relevés horaires Matro (Suisse)


Relevés horaires à Matro - Dimanche 30 Nov. 2014
Heure UTC1 Température [°C] Vent [km/h] Hum. [%] Pres.4 [hPa] Visi. [Km] Nébu. [octa] Préc.5 [mm] Cond.
2m. Res. Ros. Dir.2 Vit. Moy. Raf.3
23:00 1.5 -2.9 1.5 SSE 16.7 24.1 27.8 100 850(-2.3/3h) -- -- -- --
22:00 1.4 -3.3 1.4 SSE 18.5 20.4 24.1 100 850(-1.7/3h) -- -- -- --
21:00 1.3 -2.8 0.8 SSE 14.8 27.8 31.5 96 850(-1.3/3h) -- -- -- --
20:00 1.3 -3.4 0.4 SE 18.5 24.1 29.6 94 850(-1.1/3h) -- -- -- --
19:00 1.2 -4.7 1.2 SSE 27.8 27.8 31.5 100 850(-1.0/3h) -- -- -- --
18:00 1.4 -3.3 1.0 SSE 18.5 22.2 25.9 97 850 -- -- -- --
17:00 1.3 -3.9 0.9 SSE 22.2 22.2 25.9 97 850(-0.7/3h) -- -- -- --
16:00 1.8 -3 1.7 SSE 20.4 20.4 24.1 99 850(-0.7/3h) -- -- -- --
15:00 2.1 -2.9 2.1 SSE 22.2 22.2 24.1 100 850(-0.9/3h) -- -- -- --
14:00 1.9 -3.1 1.9 SSE 22.2 22.2 22.2 100 850(-1.3/3h) -- -- -- --
13:00 2.0 -2.2 1.6 ESE 16.7 16.7 16.7 97 850(-1.4/3h) -- -- -- --
12:00 1.6 -2.4 1.6 SSE 14.8 18.5 20.4 100 850(-1.1/3h) -- -- -- --
11:00 1.7 -1.9 1.5 SSE 13.0 16.7 18.5 99 850(-0.3/3h) -- -- -- --
10:00 2.3 -1.2 1.9 SSE 13.0 13.0 14.8 97 850(0.1/3h) -- -- -- --
09:00 1.9 -1.3 1.6 SE 11.1 18.5 20.4 98 850(0.2/3h) -- -- -- --
08:00 1.8 -1 0.7 SE 9.3 9.3 11.1 92 850(0.1/3h) -- -- -- --
07:00 1.5 -1.8 1.5 SE 11.1 18.5 20.4 100 850(0.2/3h) -- -- -- --
06:00 1.8 -2.5 1.8 SE 16.7 27.8 31.5 100 850 -- -- -- --
05:00 1.9 -2.6 1.4 SE 18.5 22.2 27.8 96 850(-0.5/3h) -- -- -- --
04:00 2.2 -2.5 1.9 SSE 20.4 20.4 24.1 98 850(-0.6/3h) -- -- -- --
03:00 2.4 -1.1 0.1 SSE 13.0 27.8 31.5 85 850 -- -- -- --
02:00 2.4 -2.7 1.6 SSE 24.1 25.9 29.6 94 850(-0.5/3h) -- -- -- --
01:00 2.0 -3.2 1.2 SSE 24.1 27.8 31.5 94 850(-0.7/3h) -- -- -- --
00:00 2.1 -3.3 1.4 SSE 25.9 27.8 31.5 95 850(-0.2/3h) -- -- -- --

1 Coordinated Universal Time. Actuellement il est 15:00 locale et 13:00 UTC.

2 Le vent souffle depuis la direction indiquée vers la direction oposée.

3 Les rafales max. sont disponible 40 min après l'heure du relevé.

4 Pour les stations d'altitude (plus de 600m) le géopotentiel du niveau le plus proche de la pression obligatoire est indiqué.

5 Les stations disposant d'un diffuseur peuvent indiquer "trace". Cela signifie que des précipitations ont touchés le sol mais que la quantité est inférieure à 0.1 mm.

Copyright

Les données affichées sur cette page sont la propriété exclusive de Météo Suisse.

Récapitulatif de la journée
Température [°C] Vent [km/h] Ensoleillement4 [h] Precipitations totale5 [mm] Pression [Hpa]
Min1 Max.2 Moy.3 Max. Min Max.
1.6 2.3 21.8 31.5 0 h 0 min 0 850.0 850.0

1 Température minimale relevée entre 18:00 UTC la veille et 18:00 UTC le jour donné.

2 Température maximale relevée entre 06:00 UTC le jour donné et 06:00 UTC le lendemain.

3 Vent moyen de la journée basé sur les relevés horaires.

4 Ensoleillement en heures relevé entre 06:00 UTC la veille et 06:00 UTC le jour donné.

5 Précipitations totales tombées entre 06:00 UTC la jour donné et 06:00 UTC le lendemain.

Graphiques horaires